createdAt,value
2023-02-15T00:01:59.498Z,-0.90
2023-02-15T00:04:47.340Z,-0.90
2023-02-15T00:07:16.684Z,-1.00
2023-02-15T00:09:45.597Z,-1.10
2023-02-15T00:12:12.533Z,-1.10
2023-02-15T00:14:39.352Z,-1.20
2023-02-15T00:17:06.385Z,-1.20
2023-02-15T00:19:33.206Z,-1.20
2023-02-15T00:22:00.116Z,-1.20
2023-02-15T00:24:27.424Z,-1.30
2023-02-15T00:26:54.385Z,-1.30
2023-02-15T00:29:21.974Z,-1.30
2023-02-15T00:31:49.570Z,-1.30
2023-02-15T00:34:18.175Z,-1.20
2023-02-15T00:36:45.917Z,-1.10
2023-02-15T00:39:15.429Z,-1.00
2023-02-15T00:41:42.612Z,-0.90
2023-02-15T00:44:09.766Z,-0.90
2023-02-15T00:46:37.139Z,-0.90
2023-02-15T00:49:04.463Z,-0.80
2023-02-15T00:51:32.159Z,-0.90
2023-02-15T00:53:59.453Z,-0.90
2023-02-15T00:56:26.552Z,-1.00
2023-02-15T00:58:53.432Z,-1.00
2023-02-15T01:01:22.085Z,-1.20
2023-02-15T01:03:51.704Z,-1.20
2023-02-15T01:06:19.403Z,-1.40
2023-02-15T01:08:48.071Z,-1.50
2023-02-15T01:11:22.992Z,-1.50
2023-02-15T01:13:52.800Z,-1.50
2023-02-15T01:16:20.532Z,-1.50
2023-02-15T01:18:47.888Z,-1.60
2023-02-15T01:21:18.787Z,-1.60
2023-02-15T01:23:45.682Z,-1.60
2023-02-15T01:26:13.990Z,-1.60
2023-02-15T01:28:40.765Z,-1.70
2023-02-15T01:31:13.975Z,-1.70
2023-02-15T01:33:41.317Z,-1.70
2023-02-15T01:36:10.149Z,-1.60
2023-02-15T01:38:37.654Z,-1.70
2023-02-15T01:41:24.313Z,-1.70
2023-02-15T01:43:53.227Z,-1.60
2023-02-15T01:46:24.293Z,-1.40
2023-02-15T01:48:56.010Z,-1.40
2023-02-15T01:51:27.106Z,-1.30
2023-02-15T01:54:12.744Z,-1.30
2023-02-15T01:56:41.896Z,-1.30
2023-02-15T01:59:22.115Z,-1.30
2023-02-15T02:01:51.307Z,-1.30
2023-02-15T02:04:39.139Z,-1.30
2023-02-15T02:07:07.813Z,-1.40
2023-02-15T02:09:35.323Z,-1.30
2023-02-15T02:12:02.985Z,-1.40
2023-02-15T02:14:30.085Z,-1.40
2023-02-15T02:17:10.304Z,-1.40
2023-02-15T02:19:55.377Z,-1.40
2023-02-15T02:23:04.201Z,-1.40
2023-02-15T02:25:59.642Z,-1.50
2023-02-15T02:28:26.658Z,-1.60
2023-02-15T02:31:30.407Z,-1.70
2023-02-15T02:34:17.623Z,-1.90
2023-02-15T02:37:17.937Z,-2.00
2023-02-15T02:39:55.465Z,-2.00
2023-02-15T02:42:30.752Z,-2.10
2023-02-15T02:45:05.181Z,-2.10
2023-02-15T02:47:44.920Z,-2.20
2023-02-15T02:50:16.319Z,-2.30
2023-02-15T02:52:47.330Z,-2.40
2023-02-15T02:55:29.533Z,-2.40
2023-02-15T02:58:09.134Z,-2.40
2023-02-15T03:01:09.888Z,-2.40
2023-02-15T03:03:54.042Z,-2.30
2023-02-15T03:06:37.334Z,-2.30
2023-02-15T03:09:24.942Z,-2.40
2023-02-15T03:11:51.853Z,-2.50
2023-02-15T03:14:21.036Z,-2.60
2023-02-15T03:16:51.140Z,-2.60
2023-02-15T03:19:24.529Z,-2.60
2023-02-15T03:21:59.048Z,-2.70
2023-02-15T03:24:42.442Z,-2.80
2023-02-15T03:27:18.212Z,-2.90
2023-02-15T03:29:54.516Z,-2.90
2023-02-15T03:32:22.781Z,-3.00
2023-02-15T03:34:49.846Z,-3.00
2023-02-15T03:37:27.373Z,-3.10
2023-02-15T03:40:39.542Z,-3.00
2023-02-15T03:43:23.186Z,-3.00
2023-02-15T03:45:56.595Z,-3.00
2023-02-15T03:48:31.058Z,-3.00
2023-02-15T03:51:21.361Z,-3.00
2023-02-15T03:53:50.050Z,-3.10
2023-02-15T03:56:16.935Z,-3.20
2023-02-15T03:59:02.611Z,-3.20
2023-02-15T04:02:09.617Z,-3.10
2023-02-15T04:04:41.968Z,-3.10
2023-02-15T04:07:09.885Z,-3.00
2023-02-15T04:09:55.397Z,-3.00
2023-02-15T04:12:22.345Z,-3.00
2023-02-15T04:15:07.794Z,-3.00
2023-02-15T04:17:34.632Z,-2.90
2023-02-15T04:20:20.165Z,-2.90
2023-02-15T04:23:05.538Z,-2.90
2023-02-15T04:25:32.434Z,-2.90
2023-02-15T04:27:59.229Z,-2.90
2023-02-15T04:30:26.769Z,-3.00
2023-02-15T04:32:56.303Z,-3.00
2023-02-15T04:35:23.444Z,-3.00
2023-02-15T04:37:50.295Z,-2.90
2023-02-15T04:40:19.666Z,-2.90
2023-02-15T04:42:50.042Z,-2.80
2023-02-15T04:45:17.954Z,-2.80
2023-02-15T04:47:45.025Z,-2.90
2023-02-15T04:50:12.119Z,-3.00
2023-02-15T04:52:39.158Z,-3.10
2023-02-15T04:55:06.530Z,-3.10
2023-02-15T04:57:33.390Z,-3.10
2023-02-15T05:00:00.287Z,-3.10
2023-02-15T05:02:27.217Z,-3.30
2023-02-15T05:04:54.037Z,-3.40
2023-02-15T05:07:21.436Z,-3.40
2023-02-15T05:09:48.617Z,-3.50
2023-02-15T05:12:15.548Z,-3.50
2023-02-15T05:14:42.492Z,-3.50
2023-02-15T05:17:09.334Z,-3.50
2023-02-15T05:19:36.126Z,-3.50
2023-02-15T05:22:02.993Z,-3.50
2023-02-15T05:24:48.529Z,-3.50
2023-02-15T05:27:34.181Z,-3.50
2023-02-15T05:30:01.093Z,-3.60
2023-02-15T05:32:28.358Z,-3.60
2023-02-15T05:34:55.280Z,-3.50
2023-02-15T05:37:22.096Z,-3.60
2023-02-15T05:39:49.246Z,-3.60
2023-02-15T05:42:16.080Z,-3.60
2023-02-15T05:44:42.901Z,-3.60
2023-02-15T05:47:09.900Z,-3.60
2023-02-15T05:49:37.018Z,-3.70
2023-02-15T05:52:04.684Z,-3.70
2023-02-15T05:54:31.709Z,-3.80
2023-02-15T05:56:58.550Z,-3.90
2023-02-15T05:59:25.411Z,-3.90
2023-02-15T06:01:52.158Z,-3.90
2023-02-15T06:04:19.007Z,-3.90
2023-02-15T06:06:45.943Z,-3.90
2023-02-15T06:09:13.764Z,-4.00
2023-02-15T06:11:41.016Z,-4.00
2023-02-15T06:14:07.926Z,-4.00
2023-02-15T06:16:34.702Z,-4.00
2023-02-15T06:19:02.771Z,-4.00
2023-02-15T06:21:30.363Z,-4.00
2023-02-15T06:23:57.228Z,-4.00
2023-02-15T06:26:24.284Z,-4.00
2023-02-15T06:28:51.175Z,-4.10
2023-02-15T06:31:18.025Z,-4.10
2023-02-15T06:33:44.815Z,-4.20
2023-02-15T06:36:11.565Z,-4.20
2023-02-15T06:38:38.472Z,-4.20
2023-02-15T06:41:05.256Z,-4.30
2023-02-15T06:43:32.275Z,-4.40
2023-02-15T06:45:59.495Z,-4.40
2023-02-15T06:48:26.315Z,-4.50
2023-02-15T06:50:53.467Z,-4.50
2023-02-15T06:53:20.315Z,-4.60
2023-02-15T06:55:47.069Z,-4.50
2023-02-15T06:58:13.861Z,-4.50
2023-02-15T07:00:40.669Z,-4.50
2023-02-15T07:03:07.515Z,-4.50
2023-02-15T07:05:35.662Z,-4.50
2023-02-15T07:08:02.617Z,-4.50
2023-02-15T07:10:29.827Z,-4.60
2023-02-15T07:12:56.861Z,-4.50
2023-02-15T07:15:23.945Z,-4.60
2023-02-15T07:17:51.106Z,-4.50
2023-02-15T07:20:21.195Z,-4.50
2023-02-15T07:22:48.444Z,-4.50
2023-02-15T07:25:16.013Z,-4.50
2023-02-15T07:27:43.328Z,-4.50
2023-02-15T07:30:12.507Z,-4.60
2023-02-15T07:32:59.504Z,-4.60
2023-02-15T07:35:26.966Z,-4.70
2023-02-15T07:37:54.147Z,-4.80
2023-02-15T07:40:24.239Z,-4.80
2023-02-15T07:42:54.187Z,-4.80
2023-02-15T07:45:22.290Z,-4.90
2023-02-15T07:47:49.245Z,-4.80
2023-02-15T07:50:16.157Z,-4.90
2023-02-15T07:52:42.943Z,-4.80
2023-02-15T07:55:09.962Z,-4.80
2023-02-15T07:57:36.900Z,-4.70
2023-02-15T08:00:04.741Z,-4.80
2023-02-15T08:02:39.523Z,-4.80
2023-02-15T08:05:07.604Z,-4.80
2023-02-15T08:07:34.603Z,-4.70
2023-02-15T08:10:01.537Z,-4.60
2023-02-15T08:12:28.489Z,-4.50
2023-02-15T08:14:55.341Z,-4.50
2023-02-15T08:17:22.148Z,-4.50
2023-02-15T08:19:49.103Z,-4.50
2023-02-15T08:22:15.984Z,-4.40
2023-02-15T08:24:42.917Z,-4.30
2023-02-15T08:27:11.752Z,-4.30
2023-02-15T08:29:40.380Z,-4.20
2023-02-15T08:32:10.770Z,-4.30
2023-02-15T08:34:41.195Z,-4.20
2023-02-15T08:37:08.709Z,-4.10
2023-02-15T08:39:35.959Z,-4.00
2023-02-15T08:42:03.286Z,-3.90
2023-02-15T08:44:30.581Z,-3.90
2023-02-15T08:47:06.541Z,-3.90
2023-02-15T08:49:33.519Z,-3.80
2023-02-15T08:52:00.860Z,-3.80
2023-02-15T08:54:27.775Z,-3.70
2023-02-15T08:56:54.681Z,-3.60
2023-02-15T08:59:23.638Z,-3.60
2023-02-15T09:01:52.172Z,-3.60
2023-02-15T09:04:19.741Z,-3.60
2023-02-15T09:06:49.245Z,-3.60
2023-02-15T09:09:17.409Z,-3.50
2023-02-15T09:11:45.926Z,-3.50
2023-02-15T09:14:15.425Z,-3.50
2023-02-15T09:16:47.480Z,-3.40
2023-02-15T09:19:14.485Z,-3.30
2023-02-15T09:21:42.194Z,-3.20
2023-02-15T09:24:12.891Z,-3.10
2023-02-15T09:26:42.862Z,-3.00
2023-02-15T09:29:11.434Z,-2.90
2023-02-15T09:31:45.642Z,-2.90
2023-02-15T09:34:18.121Z,-2.80
2023-02-15T09:36:45.530Z,-2.80
2023-02-15T09:39:15.405Z,-2.80
2023-02-15T09:41:57.076Z,-2.70
2023-02-15T09:45:01.335Z,-2.60
2023-02-15T09:48:03.381Z,-2.50
2023-02-15T09:50:39.420Z,-2.30
2023-02-15T09:53:21.206Z,-2.30
2023-02-15T09:56:03.299Z,-2.10
2023-02-15T09:59:03.077Z,-2.00
2023-02-15T10:01:44.592Z,-2.00
2023-02-15T10:04:20.480Z,-1.90
2023-02-15T10:07:35.642Z,-1.70
2023-02-15T10:10:31.930Z,-1.60
2023-02-15T10:13:11.364Z,-1.50
2023-02-15T10:15:52.984Z,-1.40
2023-02-15T10:18:28.789Z,-1.30
2023-02-15T10:21:04.960Z,-1.20
2023-02-15T10:23:43.960Z,-1.20
2023-02-15T10:26:19.510Z,-1.10
2023-02-15T10:28:52.329Z,-1.00
2023-02-15T10:31:34.600Z,-0.90
2023-02-15T10:34:24.997Z,-0.90
2023-02-15T10:37:26.145Z,-0.80
2023-02-15T10:40:20.570Z,-0.80
2023-02-15T10:43:07.957Z,-0.80
2023-02-15T10:45:50.956Z,-0.60
2023-02-15T10:48:26.658Z,-0.40
2023-02-15T10:51:03.292Z,-0.20
2023-02-15T10:54:03.260Z,-0.10
2023-02-15T10:57:07.442Z,0.00
2023-02-15T10:59:48.305Z,0.00
2023-02-15T11:02:28.044Z,0.10
2023-02-15T11:05:16.050Z,0.20
2023-02-15T11:07:47.869Z,0.20
2023-02-15T11:10:40.065Z,0.30
2023-02-15T11:13:13.167Z,0.30
2023-02-15T11:15:52.504Z,0.30
2023-02-15T11:18:42.693Z,0.20
2023-02-15T11:21:39.895Z,0.20
2023-02-15T11:24:17.098Z,0.10
2023-02-15T11:27:13.775Z,-0.20
2023-02-15T11:29:53.794Z,-0.30
2023-02-15T11:32:38.298Z,-0.20
2023-02-15T11:35:05.564Z,-0.20
2023-02-15T11:37:44.861Z,0.00
2023-02-15T11:40:52.468Z,0.30
2023-02-15T11:43:23.374Z,0.30
2023-02-15T11:45:50.196Z,0.50
2023-02-15T11:48:18.768Z,0.70
2023-02-15T11:50:45.909Z,0.70
2023-02-15T11:53:17.484Z,0.80
2023-02-15T11:55:49.771Z,0.90
2023-02-15T11:58:44.738Z,0.80
2023-02-15T12:01:30.811Z,0.80
2023-02-15T12:04:26.921Z,0.70
2023-02-15T12:07:04.047Z,0.80
2023-02-15T12:10:15.011Z,1.00
2023-02-15T12:12:41.930Z,1.10
2023-02-15T12:15:10.813Z,1.20
2023-02-15T12:17:40.622Z,1.20
2023-02-15T12:20:21.868Z,1.30
2023-02-15T12:23:04.690Z,1.30
2023-02-15T12:25:39.963Z,1.30
2023-02-15T12:28:23.319Z,1.40
2023-02-15T12:30:53.122Z,1.50
2023-02-15T12:33:46.495Z,1.40
2023-02-15T12:36:33.134Z,1.20
2023-02-15T12:39:08.847Z,1.10
2023-02-15T12:41:37.616Z,0.90
2023-02-15T12:44:20.154Z,0.80
2023-02-15T12:47:08.245Z,0.60
2023-02-15T12:49:37.649Z,0.50
2023-02-15T12:52:24.781Z,0.50
2023-02-15T12:54:52.372Z,0.40
2023-02-15T12:57:29.951Z,0.40
2023-02-15T13:00:02.361Z,0.60
2023-02-15T13:02:37.479Z,0.60
2023-02-15T13:05:19.265Z,0.50
2023-02-15T13:07:50.178Z,0.40
2023-02-15T13:10:44.964Z,0.40
2023-02-15T13:13:18.789Z,0.40
2023-02-15T13:15:49.323Z,0.50
2023-02-15T13:18:24.772Z,0.40
2023-02-15T13:20:52.553Z,0.20
2023-02-15T13:23:30.328Z,0.30
2023-02-15T13:25:59.013Z,0.30
2023-02-15T13:28:45.608Z,0.30
2023-02-15T13:31:21.643Z,0.20
2023-02-15T13:34:21.020Z,0.10
2023-02-15T13:37:01.787Z,-0.20
2023-02-15T13:39:48.445Z,-0.30
2023-02-15T13:42:24.448Z,-0.30
2023-02-15T13:45:02.100Z,-0.40
2023-02-15T13:47:49.756Z,-0.40
2023-02-15T13:50:19.508Z,-0.40
2023-02-15T13:53:12.229Z,-0.40
2023-02-15T13:55:48.773Z,-0.50
2023-02-15T13:58:38.826Z,-0.60
2023-02-15T14:01:21.472Z,-0.80
2023-02-15T14:04:11.969Z,-0.90
2023-02-15T14:06:59.768Z,-1.00
2023-02-15T14:09:41.197Z,-1.00
2023-02-15T14:12:53.320Z,-1.10
2023-02-15T14:15:46.550Z,-1.10
2023-02-15T14:18:30.560Z,-1.10
2023-02-15T14:21:37.833Z,-1.00
2023-02-15T14:24:19.120Z,-1.00
2023-02-15T14:27:10.863Z,-0.90
2023-02-15T14:30:00.306Z,-1.00
2023-02-15T14:32:42.160Z,-1.00
2023-02-15T14:35:22.200Z,-1.00
2023-02-15T14:37:55.934Z,-1.00
2023-02-15T14:41:04.856Z,-1.00
2023-02-15T14:43:59.780Z,-1.00
2023-02-15T14:46:55.774Z,-1.00
2023-02-15T14:49:26.693Z,-1.00
2023-02-15T14:51:59.921Z,-1.00
2023-02-15T14:54:26.877Z,-1.00
2023-02-15T14:57:03.073Z,-1.00
2023-02-15T14:59:47.289Z,-1.00
2023-02-15T15:02:19.896Z,-1.10
2023-02-15T15:04:59.773Z,-1.10
2023-02-15T15:07:46.925Z,-1.00
2023-02-15T15:10:17.155Z,-1.00
2023-02-15T15:12:51.985Z,-1.10
2023-02-15T15:15:27.740Z,-1.10
2023-02-15T15:18:11.513Z,-1.10
2023-02-15T15:20:41.913Z,-1.10
2023-02-15T15:23:17.834Z,-1.10
2023-02-15T15:25:45.808Z,-1.10
2023-02-15T15:28:34.725Z,-1.10
2023-02-15T15:31:16.556Z,-1.20
2023-02-15T15:34:24.955Z,-1.30
2023-02-15T15:37:30.644Z,-1.30
2023-02-15T15:39:57.514Z,-1.30
2023-02-15T15:42:48.530Z,-1.30
2023-02-15T15:45:50.628Z,-1.30
2023-02-15T15:48:30.626Z,-1.30
2023-02-15T15:51:12.502Z,-1.30
2023-02-15T15:53:43.281Z,-1.30
2023-02-15T15:56:16.435Z,-1.40
2023-02-15T15:58:48.841Z,-1.40
2023-02-15T16:01:16.006Z,-1.40
2023-02-15T16:03:54.439Z,-1.50
2023-02-15T16:06:29.161Z,-1.40
2023-02-15T16:08:56.100Z,-1.50
2023-02-15T16:11:30.209Z,-1.50
2023-02-15T16:13:57.363Z,-1.60
2023-02-15T16:16:29.047Z,-1.50
2023-02-15T16:19:00.532Z,-1.50
2023-02-15T16:21:35.699Z,-1.50
2023-02-15T16:24:41.027Z,-1.50
2023-02-15T16:27:37.371Z,-1.50
2023-02-15T16:30:31.750Z,-1.50
2023-02-15T16:33:13.452Z,-1.60
2023-02-15T16:35:53.647Z,-1.70
2023-02-15T16:38:35.530Z,-1.70
2023-02-15T16:41:02.834Z,-1.80
2023-02-15T16:43:32.809Z,-1.80
2023-02-15T16:46:06.340Z,-1.90
2023-02-15T16:48:40.122Z,-1.90
2023-02-15T16:51:07.450Z,-1.90
2023-02-15T16:53:34.235Z,-2.00
2023-02-15T16:56:05.169Z,-2.10
2023-02-15T16:58:39.064Z,-2.10
2023-02-15T17:01:10.185Z,-2.10
2023-02-15T17:03:37.361Z,-2.20
2023-02-15T17:06:08.110Z,-2.20
2023-02-15T17:08:43.761Z,-2.10
2023-02-15T17:11:16.481Z,-2.10
2023-02-15T17:14:05.123Z,-2.10
2023-02-15T17:16:35.982Z,-2.20
2023-02-15T17:19:10.165Z,-2.20
2023-02-15T17:21:47.100Z,-2.20
2023-02-15T17:24:31.928Z,-2.20
2023-02-15T17:27:22.179Z,-2.20
2023-02-15T17:29:57.227Z,-2.20
2023-02-15T17:32:30.552Z,-2.30
2023-02-15T17:34:59.031Z,-2.30
2023-02-15T17:37:37.615Z,-2.40
2023-02-15T17:40:27.144Z,-2.40
2023-02-15T17:42:54.716Z,-2.40
2023-02-15T17:45:23.581Z,-2.40
2023-02-15T17:47:50.797Z,-2.40
2023-02-15T17:50:24.193Z,-2.40
2023-02-15T17:52:52.201Z,-2.40
2023-02-15T17:55:36.410Z,-2.40
2023-02-15T17:58:06.840Z,-2.40
2023-02-15T18:00:55.939Z,-2.40
2023-02-15T18:03:43.194Z,-2.30
2023-02-15T18:06:32.252Z,-2.20
2023-02-15T18:09:17.617Z,-2.20
2023-02-15T18:11:48.706Z,-2.20
2023-02-15T18:14:15.630Z,-2.30
2023-02-15T18:16:45.617Z,-2.20
2023-02-15T18:19:17.116Z,-2.10
2023-02-15T18:21:45.324Z,-2.10
2023-02-15T18:24:21.340Z,-2.00
2023-02-15T18:26:48.671Z,-2.00
2023-02-15T18:29:15.599Z,-2.00
2023-02-15T18:31:44.188Z,-1.90
2023-02-15T18:34:22.448Z,-1.90
2023-02-15T18:36:49.710Z,-1.90
2023-02-15T18:39:40.704Z,-1.90
2023-02-15T18:42:27.109Z,-1.90
2023-02-15T18:44:57.054Z,-1.90
2023-02-15T18:47:24.468Z,-1.80
2023-02-15T18:49:51.530Z,-1.80
2023-02-15T18:52:24.597Z,-1.70
2023-02-15T18:54:55.818Z,-1.70
2023-02-15T18:57:23.020Z,-1.70
2023-02-15T18:59:49.856Z,-1.60
2023-02-15T19:02:18.405Z,-1.50
2023-02-15T19:04:49.530Z,-1.50
2023-02-15T19:07:21.780Z,-1.50
2023-02-15T19:09:52.564Z,-1.50
2023-02-15T19:12:19.767Z,-1.50
2023-02-15T19:14:46.899Z,-1.50
2023-02-15T19:17:19.357Z,-1.50
2023-02-15T19:19:47.397Z,-1.50
2023-02-15T19:22:19.960Z,-1.50
2023-02-15T19:24:47.638Z,-1.50
2023-02-15T19:27:25.646Z,-1.40
2023-02-15T19:29:53.979Z,-1.50
2023-02-15T19:32:20.995Z,-1.50
2023-02-15T19:34:47.966Z,-1.50
2023-02-15T19:37:44.846Z,-1.50
2023-02-15T19:40:24.078Z,-1.50
2023-02-15T19:42:51.581Z,-1.50
2023-02-15T19:45:21.785Z,-1.40
2023-02-15T19:47:49.399Z,-1.40
2023-02-15T19:50:18.531Z,-1.40
2023-02-15T19:52:46.481Z,-1.40
2023-02-15T19:55:22.551Z,-1.40
2023-02-15T19:57:52.170Z,-1.40
2023-02-15T20:00:27.724Z,-1.40
2023-02-15T20:02:55.537Z,-1.40
2023-02-15T20:05:23.061Z,-1.40
2023-02-15T20:07:52.119Z,-1.40
2023-02-15T20:10:39.231Z,-1.40
2023-02-15T20:13:06.119Z,-1.40
2023-02-15T20:15:35.028Z,-1.40
2023-02-15T20:18:04.213Z,-1.40
2023-02-15T20:20:55.136Z,-1.40
2023-02-15T20:23:26.530Z,-1.40
2023-02-15T20:25:57.213Z,-1.30
2023-02-15T20:28:30.382Z,-1.30
2023-02-15T20:30:57.475Z,-1.30
2023-02-15T20:33:24.582Z,-1.30
2023-02-15T20:35:51.593Z,-1.30
2023-02-15T20:38:28.184Z,-1.30
2023-02-15T20:41:15.116Z,-1.20
2023-02-15T20:43:42.090Z,-1.20
2023-02-15T20:46:09.469Z,-1.10
2023-02-15T20:48:36.636Z,-1.20
2023-02-15T20:51:04.115Z,-1.20
2023-02-15T20:53:31.041Z,-1.30
2023-02-15T20:55:57.893Z,-1.30
2023-02-15T20:58:29.903Z,-1.30
2023-02-15T21:00:58.033Z,-1.30
2023-02-15T21:03:27.867Z,-1.30
2023-02-15T21:05:54.683Z,-1.40
2023-02-15T21:08:23.296Z,-1.30
2023-02-15T21:10:52.506Z,-1.30
2023-02-15T21:13:26.721Z,-1.30
2023-02-15T21:15:55.204Z,-1.20
2023-02-15T21:18:30.702Z,-1.20
2023-02-15T21:21:03.331Z,-1.10
2023-02-15T21:23:41.936Z,-1.00
2023-02-15T21:26:19.435Z,-0.90
2023-02-15T21:28:47.258Z,-0.90
2023-02-15T21:31:20.534Z,-0.90
2023-02-15T21:33:47.431Z,-1.00
2023-02-15T21:36:23.458Z,-1.00
2023-02-15T21:38:51.706Z,-1.00
2023-02-15T21:41:39.581Z,-0.90
2023-02-15T21:44:39.541Z,-1.00
2023-02-15T21:47:25.886Z,-1.00
2023-02-15T21:49:53.134Z,-0.90
2023-02-15T21:52:23.510Z,-1.00
2023-02-15T21:54:50.426Z,-1.00
2023-02-15T21:57:18.255Z,-1.00
2023-02-15T21:59:46.644Z,-1.00
2023-02-15T22:02:31.130Z,-1.00
2023-02-15T22:04:59.025Z,-1.00
2023-02-15T22:07:25.828Z,-1.00
2023-02-15T22:09:54.378Z,-1.00
2023-02-15T22:12:22.059Z,-0.90
2023-02-15T22:14:53.844Z,-0.80
2023-02-15T22:17:24.925Z,-0.80
2023-02-15T22:19:52.620Z,-0.80
2023-02-15T22:22:19.421Z,-0.70
2023-02-15T22:24:46.652Z,-0.70
2023-02-15T22:27:27.940Z,-0.70
2023-02-15T22:29:55.526Z,-0.70
2023-02-15T22:32:25.438Z,-0.70
2023-02-15T22:34:53.816Z,-0.60
2023-02-15T22:37:21.015Z,-0.60
2023-02-15T22:39:47.805Z,-0.50
2023-02-15T22:42:28.291Z,-0.30
2023-02-15T22:44:56.611Z,-0.20
2023-02-15T22:47:26.273Z,-0.10
2023-02-15T22:49:54.728Z,0.00
2023-02-15T22:52:21.860Z,0.00
2023-02-15T22:54:48.801Z,0.00
2023-02-15T22:57:33.537Z,-0.10
2023-02-15T23:00:01.295Z,-0.30
2023-02-15T23:02:28.169Z,-0.30
2023-02-15T23:04:55.112Z,-0.30
2023-02-15T23:07:23.170Z,-0.40
2023-02-15T23:09:51.100Z,-0.30
2023-02-15T23:12:25.870Z,-0.20
2023-02-15T23:14:53.949Z,0.00
2023-02-15T23:17:21.366Z,0.10
2023-02-15T23:19:48.213Z,0.20
2023-02-15T23:22:16.897Z,0.40
2023-02-15T23:24:47.014Z,0.60
2023-02-15T23:27:35.491Z,0.70
2023-02-15T23:30:05.155Z,0.90
2023-02-15T23:32:32.583Z,1.00
2023-02-15T23:34:59.464Z,1.10
2023-02-15T23:37:26.381Z,1.20
2023-02-15T23:40:11.934Z,1.20
2023-02-15T23:42:39.157Z,1.30
2023-02-15T23:45:14.109Z,1.40
2023-02-15T23:48:06.722Z,1.50
2023-02-15T23:50:33.678Z,1.50
2023-02-15T23:53:01.339Z,1.60
2023-02-15T23:55:39.665Z,1.70
2023-02-15T23:58:13.441Z,1.70
